Atherton, Indiana
Current Conditions -  °F | °C
As of 6:53 AM on Friday 21 Nov 2014 (Local Time) from KHUF Reporting Station
Clear Clear  
Wind Chill: -15°   Ceiling: Unl
Heat Index: -11°   Visibility: 10mi
Dew Point: -13°   Wind: 5mph
Humidity: 81%   Direction: 40°NE
Pressure: 30.44"   Gusts: NA
Location:  39.6386°N, 87.3045°W
Report Text: KHUF 211153Z 04004KT 10SM CLR M11/M13 A3044 RMK AO2 SLP316 T11061133 11056 21111 50008
Loading
Personal Weather Stations






























Interactive Weather Map New forecast layout! Learn more

10-Day Weather Forecast

Advertisements
Track Severe Weather on mobile